Time;durP1;ratioP1;P1;durP2;ratioP2;P2;SDS_P1;SDS_P2;PMS_P1;PMS_P2;Temp;Humidity;BMP_temperature;BMP_pressure;BME280_temperature;BME280_humidity;BME280_pressure;Samples;Min_cycle;Max_cycle;Signal;HPM_P1;HPM_P2
2023/08/02 00:01:05;;;;;;;16.20;10.13;;;;;;;19.97;92.74;98947.88;5051157;28;20401;-54
2023/08/02 00:03:31;;;;;;;14.30;10.10;;;;;;;19.96;93.01;98938.28;5046812;28;20068;-49
2023/08/02 00:05:58;;;;;;;17.08;10.52;;;;;;;19.95;93.26;98943.66;5048059;28;20118;-52
2023/08/02 00:08:25;;;;;;;14.00;10.30;;;;;;;19.93;93.67;98940.34;5067237;28;20051;-52
2023/08/02 00:10:51;;;;;;;13.85;9.95;;;;;;;19.91;94.10;98935.19;5051275;28;20086;-54
2023/08/02 00:13:17;;;;;;;19.52;10.68;;;;;;;19.89;94.46;98934.47;5050600;28;20040;-48
2023/08/02 00:15:44;;;;;;;15.05;10.50;;;;;;;19.88;94.67;98940.72;5067546;28;20135;-51
2023/08/02 00:18:10;;;;;;;16.98;10.73;;;;;;;19.84;94.81;98936.66;5068223;28;20131;-50
2023/08/02 00:20:37;;;;;;;15.27;11.00;;;;;;;19.84;95.30;98941.94;5065455;28;20072;-49
2023/08/02 00:23:03;;;;;;;17.38;10.82;;;;;;;19.67;95.31;98910.88;5051068;28;20432;-53
2023/08/02 00:25:29;;;;;;;15.82;10.23;;;;;;;19.79;95.60;98941.47;5067577;28;20089;-46
2023/08/02 00:27:55;;;;;;;19.63;10.05;;;;;;;19.63;95.78;98917.34;5067130;28;20135;-48
2023/08/02 00:30:21;;;;;;;19.52;10.02;;;;;;;19.76;95.94;98944.38;5063371;28;20044;-50
2023/08/02 00:32:48;;;;;;;16.45;10.45;;;;;;;19.76;96.14;98942.59;5068860;28;20370;-50
2023/08/02 00:35:15;;;;;;;13.98;9.73;;;;;;;19.50;96.07;98893.00;5066689;28;20095;-47
2023/08/02 00:37:41;;;;;;;19.25;10.00;;;;;;;19.76;96.27;98941.75;5051060;28;20051;-51
2023/08/02 00:40:08;;;;;;;12.85;9.68;;;;;;;19.60;96.42;98920.25;5051096;28;20040;-47
2023/08/02 00:42:37;;;;;;;12.85;9.18;;;;;;;19.74;96.65;98943.66;5068941;28;20113;-46
2023/08/02 00:45:04;;;;;;;16.88;9.07;;;;;;;19.72;96.80;98941.19;5062594;28;20040;-49
2023/08/02 00:47:33;;;;;;;13.40;9.32;;;;;;;19.66;97.13;98936.41;5050451;28;20041;-51
2023/08/02 00:50:00;;;;;;;15.30;9.98;;;;;;;19.70;97.44;98942.25;5068681;28;20085;-51
2023/08/02 00:52:26;;;;;;;18.20;10.25;;;;;;;19.55;97.59;98931.19;5067352;28;20057;-49
2023/08/02 00:54:52;;;;;;;14.38;10.02;;;;;;;19.63;98.22;98947.19;5066355;28;20049;-48
2023/08/02 00:57:18;;;;;;;14.57;10.13;;;;;;;19.56;98.30;98935.50;5067700;28;20055;-49
2023/08/02 00:59:44;;;;;;;14.23;10.07;;;;;;;19.28;98.66;98897.38;5074459;28;20424;-50
2023/08/02 01:02:10;;;;;;;18.13;10.50;;;;;;;19.57;99.15;98942.47;5062635;28;20041;-49
2023/08/02 01:04:37;;;;;;;16.45;10.20;;;;;;;19.50;99.22;98943.09;5065599;28;20091;-50
2023/08/02 01:07:11;;;;;;;13.77;9.50;;;;;;;19.53;99.45;98943.66;5049953;28;20045;-47
2023/08/02 01:09:43;;;;;;;14.98;9.93;;;;;;;19.45;99.56;98936.41;5034446;28;20078;-50
2023/08/02 01:12:10;;;;;;;13.55;9.77;;;;;;;19.33;99.61;98920.72;5059323;28;20458;-49
2023/08/02 01:14:40;;;;;;;14.88;10.13;;;;;;;19.47;99.98;98949.44;5050128;28;20040;-49
2023/08/02 01:17:08;;;;;;;12.25;9.23;;;;;;;19.44;100.00;98940.00;5041925;28;20201;-47
2023/08/02 01:19:34;;;;;;;14.98;10.85;;;;;;;19.44;100.00;98945.25;5070849;28;20043;-47
2023/08/02 01:22:00;;;;;;;19.08;11.18;;;;;;;19.42;100.00;98951.56;5070872;28;20040;-51
2023/08/02 01:24:33;;;;;;;15.88;10.63;;;;;;;19.40;100.00;98946.44;5070831;28;20040;-50
2023/08/02 01:27:02;;;;;;;16.15;10.75;;;;;;;19.39;100.00;98949.22;5070949;28;20036;-49
2023/08/02 01:29:29;;;;;;;19.02;11.65;;;;;;;19.35;100.00;98946.00;5057347;28;20859;-48
2023/08/02 01:31:57;;;;;;;19.20;11.48;;;;;;;19.35;100.00;98943.34;5069704;28;20048;-50
2023/08/02 01:34:23;;;;;;;15.73;11.48;;;;;;;19.34;100.00;98943.47;5071682;28;20040;-49
2023/08/02 01:36:49;;;;;;;26.63;11.15;;;;;;;19.34;100.00;98951.38;5070816;28;20052;-53
2023/08/02 01:39:16;;;;;;;16.42;11.00;;;;;;;19.31;100.00;98941.91;5087105;28;20060;-49
2023/08/02 01:41:42;;;;;;;18.83;11.85;;;;;;;19.33;100.00;98949.69;5068534;28;20563;-52
2023/08/02 01:44:08;;;;;;;17.25;11.43;;;;;;;19.32;100.00;98937.47;5032967;28;20047;-53
2023/08/02 01:46:35;;;;;;;15.65;10.85;;;;;;;19.30;100.00;98950.81;5051996;28;20056;-50
2023/08/02 01:49:01;;;;;;;15.65;11.07;;;;;;;19.30;100.00;98948.16;5050048;28;20183;-54
2023/08/02 01:51:27;;;;;;;18.80;10.45;;;;;;;19.30;100.00;98949.97;5065784;28;20060;-48
2023/08/02 01:53:53;;;;;;;17.45;11.73;;;;;;;19.29;100.00;98949.13;5068273;28;20040;-46
2023/08/02 01:56:19;;;;;;;17.60;10.70;;;;;;;19.27;100.00;98955.47;5068886;28;20181;-49
2023/08/02 01:58:45;;;;;;;18.30;11.52;;;;;;;19.28;100.00;98957.16;5052241;28;20125;-47
2023/08/02 02:01:11;;;;;;;18.58;11.35;;;;;;;19.28;100.00;98962.41;5047960;28;20174;-50
2023/08/02 02:03:37;;;;;;;16.50;11.60;;;;;;;19.27;100.00;98961.59;5033611;28;20044;-49
2023/08/02 02:06:03;;;;;;;16.48;10.98;;;;;;;19.28;100.00;98954.50;5050380;28;20033;-48
2023/08/02 02:08:30;;;;;;;18.23;12.18;;;;;;;19.30;100.00;98958.72;5067052;28;20476;-48
2023/08/02 02:10:55;;;;;;;18.65;11.52;;;;;;;19.19;100.00;98934.19;5069601;28;20048;-50
2023/08/02 02:13:24;;;;;;;21.98;11.98;;;;;;;19.19;100.00;98932.41;5058727;28;20041;-47
2023/08/02 02:15:52;;;;;;;22.92;12.73;;;;;;;19.39;100.00;98955.31;5057870;28;20037;-51
2023/08/02 02:18:20;;;;;;;17.05;12.13;;;;;;;19.41;100.00;98953.41;5068095;28;20751;-49
2023/08/02 02:20:46;;;;;;;20.25;11.52;;;;;;;19.43;100.00;98956.72;5069220;28;20051;-48
2023/08/02 02:23:12;;;;;;;17.27;11.63;;;;;;;19.44;100.00;98949.66;5070746;28;20040;-51
2023/08/02 02:25:38;;;;;;;20.15;12.80;;;;;;;19.26;100.00;98917.72;5053326;28;20064;-49
2023/08/02 02:28:04;;;;;;;22.25;11.98;;;;;;;19.51;100.00;98958.78;5052348;28;20039;-50
2023/08/02 02:30:30;;;;;;;19.50;12.82;;;;;;;19.33;100.00;98921.56;5059620;28;20040;-47
2023/08/02 02:32:56;;;;;;;18.00;11.65;;;;;;;19.39;100.00;98936.03;5048982;28;20519;-49
2023/08/02 02:35:22;;;;;;;22.30;12.52;;;;;;;19.55;100.00;98952.28;5055531;28;20598;-46
2023/08/02 02:37:50;;;;;;;22.38;12.55;;;;;;;19.57;100.00;98957.44;5070844;28;20040;-53
2023/08/02 02:40:17;;;;;;;20.95;12.75;;;;;;;19.59;100.00;98958.97;5060859;28;20049;-49
2023/08/02 02:42:45;;;;;;;21.20;13.32;;;;;;;19.61;100.00;98961.50;5070434;28;20070;-48
2023/08/02 02:45:11;;;;;;;22.58;12.50;;;;;;;19.59;100.00;98958.13;5068797;28;20101;-45
2023/08/02 02:47:38;;;;;;;19.80;13.23;;;;;;;19.66;100.00;98970.69;5068642;28;20412;-48
2023/08/02 02:50:04;;;;;;;20.70;12.60;;;;;;;19.68;100.00;98965.31;5070390;28;20046;-51
2023/08/02 02:52:32;;;;;;;;;;;;;;;19.70;100.00;98969.47;5085450;28;20067;-47
2023/08/02 02:54:58;;;;;;;20.35;12.77;;;;;;;19.69;100.00;98970.44;5070599;28;19924;-48
2023/08/02 02:57:24;;;;;;;21.85;12.20;;;;;;;19.72;100.00;98959.66;5069036;28;20040;-48
2023/08/02 02:59:51;;;;;;;19.20;12.48;;;;;;;19.75;100.00;98967.28;5067883;28;20079;-48
2023/08/02 03:02:17;;;;;;;18.05;13.02;;;;;;;19.63;100.00;98936.66;5068778;28;20032;-47
2023/08/02 03:04:44;;;;;;;20.73;12.52;;;;;;;19.66;100.00;98940.84;5068990;28;20051;-50
2023/08/02 03:07:10;;;;;;;20.33;13.27;;;;;;;19.84;100.00;98966.50;5068518;28;20044;-49
2023/08/02 03:09:36;;;;;;;19.38;12.82;;;;;;;19.85;100.00;98951.53;5068967;28;20047;-47
2023/08/02 03:12:02;;;;;;;25.30;13.38;;;;;;;19.92;100.00;98951.84;5069111;28;20036;-50
2023/08/02 03:14:28;;;;;;;21.40;13.63;;;;;;;19.96;99.85;98958.53;5068886;28;20044;-48
2023/08/02 03:16:54;;;;;;;19.13;12.70;;;;;;;20.02;99.53;98960.66;5069697;28;20531;-48
2023/08/02 03:19:21;;;;;;;22.80;13.98;;;;;;;20.05;99.04;98961.22;5067849;28;20047;-48
2023/08/02 03:21:47;;;;;;;23.08;13.77;;;;;;;20.10;98.81;98953.75;5068588;28;20032;-47
2023/08/02 03:24:13;;;;;;;21.77;13.63;;;;;;;20.12;98.36;98959.75;5068289;28;20040;-47
2023/08/02 03:26:39;;;;;;;21.63;13.63;;;;;;;20.16;98.36;98953.25;5069971;28;20508;-47
2023/08/02 03:29:05;;;;;;;20.98;12.93;;;;;;;20.20;98.14;98959.13;5066390;28;20094;-49
2023/08/02 03:31:31;;;;;;;26.52;14.82;;;;;;;20.24;97.86;98952.59;5052293;28;20078;-46
2023/08/02 03:33:58;;;;;;;28.55;15.80;;;;;;;20.29;97.58;98963.59;5066555;28;20542;-51
2023/08/02 03:36:24;;;;;;;24.63;14.80;;;;;;;20.34;96.95;98961.44;5050813;28;20468;-50
2023/08/02 03:38:50;;;;;;;26.00;15.80;;;;;;;20.40;96.58;98960.91;5068982;28;20557;-51
2023/08/02 03:41:16;;;;;;;25.13;15.60;;;;;;;20.20;96.28;98919.53;5067247;28;20052;-47
2023/08/02 03:43:42;;;;;;;23.40;14.38;;;;;;;20.50;95.93;98969.72;5067910;28;20040;-48
2023/08/02 03:46:08;;;;;;;22.88;14.80;;;;;;;20.54;95.76;98972.91;5065215;28;20146;-48
2023/08/02 03:48:34;;;;;;;30.50;16.70;;;;;;;20.58;95.46;98969.88;5066256;28;20049;-49
2023/08/02 03:51:00;;;;;;;27.80;14.95;;;;;;;20.62;95.16;98965.97;5068078;28;20075;-48
2023/08/02 03:53:27;;;;;;;21.98;14.93;;;;;;;20.67;94.66;98973.53;5050721;28;20036;-48
2023/08/02 03:55:53;;;;;;;23.75;15.38;;;;;;;20.59;94.22;98949.56;5063289;28;20136;-47
2023/08/02 03:58:20;;;;;;;20.77;15.18;;;;;;;20.73;93.77;98972.97;5067830;28;20724;-49
2023/08/02 04:00:47;;;;;;;24.52;15.55;;;;;;;20.61;93.55;98952.94;5066303;28;20090;-48
2023/08/02 04:03:13;;;;;;;23.15;15.10;;;;;;;20.79;93.20;98968.97;5067309;28;20685;-48
2023/08/02 04:05:40;;;;;;;29.23;14.70;;;;;;;20.82;92.76;98961.63;5066337;28;20066;-45
2023/08/02 04:08:06;;;;;;;26.40;15.63;;;;;;;20.88;92.65;98961.09;5068117;28;20044;-50
2023/08/02 04:10:38;;;;;;;26.98;15.82;;;;;;;20.93;92.03;98965.97;5066693;28;20484;-52
2023/08/02 04:13:04;;;;;;;24.17;14.98;;;;;;;20.97;91.76;98957.63;5067860;28;20050;-47
2023/08/02 04:15:31;;;;;;;22.27;14.98;;;;;;;21.05;91.38;98959.56;5065924;28;20043;-47
2023/08/02 04:17:58;;;;;;;20.38;15.00;;;;;;;21.09;91.07;98958.34;5067405;28;20107;-49
2023/08/02 04:20:24;;;;;;;26.13;15.48;;;;;;;21.13;90.67;98960.56;5051248;28;20032;-47
2023/08/02 04:22:50;;;;;;;24.90;15.23;;;;;;;21.22;90.28;98961.59;5068967;28;20131;-50
2023/08/02 04:25:17;;;;;;;27.23;14.63;;;;;;;21.26;89.82;98962.97;5069172;28;20033;-46
2023/08/02 04:27:43;;;;;;;25.98;14.38;;;;;;;21.35;89.47;98970.09;5032905;28;20041;-46
2023/08/02 04:30:09;;;;;;;20.63;13.68;;;;;;;21.43;88.61;98969.41;5049752;28;20080;-49
2023/08/02 04:32:36;;;;;;;27.35;14.23;;;;;;;21.50;88.34;98970.53;5050865;28;20090;-50
2023/08/02 04:35:03;;;;;;;18.48;13.18;;;;;;;21.53;87.89;98965.78;5051063;28;20037;-50
2023/08/02 04:37:32;;;;;;;25.92;13.60;;;;;;;21.61;87.61;98965.09;5068557;28;20048;-47
2023/08/02 04:39:59;;;;;;;27.17;14.45;;;;;;;21.68;87.20;98954.78;5030437;28;20045;-47
2023/08/02 04:42:25;;;;;;;21.52;13.40;;;;;;;21.61;86.88;98936.00;5054023;28;20075;-54
2023/08/02 04:44:52;;;;;;;19.35;12.20;;;;;;;21.86;86.23;98966.31;5053238;28;20052;-51
2023/08/02 04:47:18;;;;;;;19.67;12.40;;;;;;;21.84;85.92;98947.09;5071565;28;20047;-48
2023/08/02 04:49:44;;;;;;;17.67;11.40;;;;;;;21.86;85.52;98937.22;5072870;28;20131;-53
2023/08/02 04:52:10;;;;;;;18.25;11.60;;;;;;;22.08;84.96;98962.56;5071399;28;20102;-49
2023/08/02 04:54:36;;;;;;;18.70;11.82;;;;;;;22.14;84.27;98960.16;5055118;28;20036;-47
2023/08/02 04:57:02;;;;;;;17.27;11.50;;;;;;;22.22;83.61;98957.63;5071421;28;20047;-53
2023/08/02 04:59:28;;;;;;;14.88;8.07;;;;;;;22.26;82.99;98956.38;5065484;28;20040;-49
2023/08/02 05:01:54;;;;;;;15.63;9.77;;;;;;;22.25;82.31;98956.50;5072536;28;20047;-50
2023/08/02 05:04:20;;;;;;;15.02;9.13;;;;;;;22.30;81.89;98960.38;5070592;28;20424;-47
2023/08/02 05:06:46;;;;;;;11.95;8.38;;;;;;;22.37;80.92;98956.19;5070361;28;20042;-49
2023/08/02 05:09:12;;;;;;;11.23;7.72;;;;;;;22.30;80.32;98933.91;5071466;28;20549;-51
2023/08/02 05:11:41;;;;;;;13.25;8.20;;;;;;;22.57;79.86;98962.25;5071249;28;20040;-50
2023/08/02 05:14:07;;;;;;;15.95;9.88;;;;;;;22.39;79.35;98911.03;5070205;28;20576;-48
2023/08/02 05:16:33;;;;;;;15.90;11.02;;;;;;;22.77;78.56;98968.31;5071297;28;20037;-47
2023/08/02 05:19:00;;;;;;;20.73;10.23;;;;;;;22.83;77.83;98957.13;5054478;28;20040;-52
2023/08/02 05:21:26;;;;;;;14.75;10.43;;;;;;;22.96;77.40;98959.44;5050313;28;20052;-49
2023/08/02 05:23:52;;;;;;;18.65;10.55;;;;;;;23.01;76.73;98959.84;5051071;28;20040;-48
2023/08/02 05:26:18;;;;;;;22.58;13.40;;;;;;;23.05;76.25;98954.06;5068294;28;20426;-48
2023/08/02 05:28:44;;;;;;;16.60;11.13;;;;;;;22.95;75.99;98940.06;5071754;28;20040;-50
2023/08/02 05:31:11;;;;;;;20.60;12.45;;;;;;;23.07;75.53;98960.06;5060069;28;20048;-51
2023/08/02 05:33:38;;;;;;;20.92;12.85;;;;;;;23.15;75.16;98961.97;5068423;28;20040;-48
2023/08/02 05:36:04;;;;;;;19.15;12.27;;;;;;;23.31;74.85;98958.66;5070869;28;20040;-52
2023/08/02 05:38:33;;;;;;;18.20;11.77;;;;;;;23.45;74.51;98961.63;5070583;28;20036;-46
2023/08/02 05:41:02;;;;;;;19.20;11.55;;;;;;;23.61;73.74;98953.81;5070654;28;20055;-49
2023/08/02 05:43:29;;;;;;;20.65;12.07;;;;;;;23.74;72.38;98966.72;5070995;28;20085;-48
2023/08/02 05:45:56;;;;;;;16.55;11.43;;;;;;;23.86;71.71;98959.34;5070971;28;20044;-47
2023/08/02 05:48:23;;;;;;;16.35;12.48;;;;;;;23.93;70.67;98958.56;5068901;28;20028;-50
2023/08/02 05:50:49;;;;;;;19.70;13.80;;;;;;;23.96;70.44;98963.56;5070088;28;20061;-48
2023/08/02 05:53:15;;;;;;;21.88;12.75;;;;;;;23.98;70.17;98964.22;5053712;28;20041;-52
2023/08/02 05:55:41;;;;;;;17.67;12.98;;;;;;;24.11;69.67;98945.25;5070219;28;20036;-51
2023/08/02 05:58:07;;;;;;;17.55;12.10;;;;;;;24.30;69.07;98970.78;5066899;28;20051;-51
2023/08/02 06:00:33;;;;;;;21.75;10.55;;;;;;;24.47;68.65;98964.56;5070636;28;20364;-46
2023/08/02 06:02:59;;;;;;;18.35;11.80;;;;;;;24.48;67.80;98964.44;5071212;28;20143;-50
2023/08/02 06:05:25;;;;;;;13.93;9.60;;;;;;;24.65;67.91;98967.97;5071497;28;20498;-46
2023/08/02 06:07:52;;;;;;;16.77;12.90;;;;;;;24.72;67.16;98953.06;5071048;28;20044;-50
2023/08/02 06:10:18;;;;;;;26.20;13.15;;;;;;;24.58;67.12;98956.34;5068795;28;20135;-50
2023/08/02 06:12:46;;;;;;;18.85;13.18;;;;;;;24.49;67.34;98949.31;5071410;28;20138;-50
2023/08/02 06:15:12;;;;;;;18.77;12.60;;;;;;;24.64;67.50;98953.03;5070534;28;20063;-50
2023/08/02 06:17:38;;;;;;;16.35;10.90;;;;;;;24.92;66.95;98953.66;5070686;28;20055;-49
2023/08/02 06:20:06;;;;;;;20.55;12.80;;;;;;;25.33;65.96;98952.75;5053280;28;20512;-48
2023/08/02 06:22:33;;;;;;;17.77;11.80;;;;;;;25.45;65.13;98950.63;5071359;28;20662;-50
2023/08/02 06:24:59;;;;;;;14.85;11.95;;;;;;;25.33;65.04;98934.13;5069955;28;20040;-49
2023/08/02 06:27:25;;;;;;;19.48;12.05;;;;;;;25.46;65.11;98954.94;5036046;28;20067;-50
2023/08/02 06:29:51;;;;;;;19.50;12.70;;;;;;;25.28;64.99;98956.91;5066644;28;20694;-54
2023/08/02 06:32:17;;;;;;;18.42;12.75;;;;;;;25.25;65.05;98950.09;5068904;28;20102;-47
2023/08/02 06:34:43;;;;;;;15.13;10.38;;;;;;;25.63;63.99;98948.69;5068274;28;20048;-47
2023/08/02 06:37:10;;;;;;;15.60;10.57;;;;;;;26.35;62.18;98925.63;5070799;28;20063;-47
2023/08/02 06:39:36;;;;;;;13.40;9.90;;;;;;;26.92;60.74;98920.91;5070544;28;20587;-48
2023/08/02 06:42:02;;;;;;;11.88;9.18;;;;;;;27.05;60.04;98946.19;5069914;28;20036;-49
2023/08/02 06:44:29;;;;;;;13.13;9.27;;;;;;;26.85;60.50;98946.56;5051464;28;20044;-47
2023/08/02 06:46:55;;;;;;;12.80;8.77;;;;;;;26.62;60.83;98924.38;5077087;28;20032;-49
2023/08/02 06:49:21;;;;;;;16.52;9.18;;;;;;;27.42;59.31;98944.44;5068124;28;20033;-49
2023/08/02 06:51:47;;;;;;;13.73;8.88;;;;;;;27.79;58.37;98942.88;5068570;28;20084;-49
2023/08/02 06:54:13;;;;;;;13.85;8.25;;;;;;;27.87;57.67;98944.63;5070530;28;20041;-45
2023/08/02 06:56:39;;;;;;;15.13;8.65;;;;;;;27.73;57.38;98931.06;5068730;28;20048;-47
2023/08/02 06:59:05;;;;;;;9.63;7.75;;;;;;;27.92;56.56;98950.25;5067951;28;20042;-47
2023/08/02 07:01:31;;;;;;;12.10;8.20;;;;;;;27.49;57.50;98928.53;5068078;28;20442;-53
2023/08/02 07:03:57;;;;;;;13.70;8.50;;;;;;;27.37;57.70;98938.00;5066149;28;20032;-53
2023/08/02 07:06:23;;;;;;;19.40;8.82;;;;;;;27.37;57.84;98936.13;5067483;28;20056;-53
2023/08/02 07:08:49;;;;;;;10.60;8.25;;;;;;;27.63;57.42;98927.81;5068577;28;20086;-50
2023/08/02 07:11:15;;;;;;;22.70;12.50;;;;;;;27.88;56.67;98920.41;5068281;28;20090;-50
2023/08/02 07:13:43;;;;;;;12.52;8.25;;;;;;;28.44;55.62;98932.38;5069499;28;20036;-51
2023/08/02 07:16:10;;;;;;;20.42;9.68;;;;;;;29.23;54.38;98928.00;5072004;28;20055;-51
2023/08/02 07:18:36;;;;;;;8.43;6.22;;;;;;;31.58;49.75;98930.75;5066164;28;20048;-50
2023/08/02 07:21:08;;;;;;;9.40;5.68;;;;;;;33.39;44.96;98936.13;5069929;28;20565;-50
2023/08/02 07:23:34;;;;;;;10.18;6.93;;;;;;;33.23;44.07;98936.66;5079838;28;20040;-53
2023/08/02 07:26:01;;;;;;;8.75;6.47;;;;;;;33.12;43.79;98927.34;5068447;28;20059;-53
2023/08/02 07:28:28;;;;;;;11.90;6.05;;;;;;;33.92;42.14;98932.00;5069265;28;20033;-52
2023/08/02 07:31:13;;;;;;;14.48;8.90;;;;;;;33.12;43.20;98922.78;5058897;28;20095;-53
2023/08/02 07:33:39;;;;;;;15.18;7.60;;;;;;;32.25;44.38;98925.16;5063918;28;20036;-49
2023/08/02 07:36:15;;;;;;;9.90;7.40;;;;;;;33.48;42.57;98943.75;5055139;28;20500;-50
2023/08/02 07:38:44;;;;;;;11.70;7.53;;;;;;;35.67;39.53;98935.78;5065362;28;20131;-49
2023/08/02 07:41:10;;;;;;;11.68;7.95;;;;;;;36.27;37.58;98933.75;5056568;28;20094;-50
2023/08/02 07:43:36;;;;;;;11.40;8.35;;;;;;;36.57;36.45;98936.28;5060628;28;20037;-49
2023/08/02 07:46:02;;;;;;;15.05;8.90;;;;;;;36.79;36.18;98931.91;5058446;28;20036;-49
2023/08/02 07:48:28;;;;;;;17.42;7.78;;;;;;;37.28;35.20;98933.16;5066902;28;20036;-53
2023/08/02 07:50:54;;;;;;;8.90;7.30;;;;;;;38.14;33.77;98940.06;5066045;28;20118;-51
2023/08/02 07:53:20;;;;;;;12.57;8.02;;;;;;;37.51;33.79;98906.97;5065224;28;20044;-49
2023/08/02 07:55:48;;;;;;;13.48;8.13;;;;;;;36.90;34.69;98930.22;5075469;28;20036;-51
2023/08/02 07:58:14;;;;;;;19.00;7.93;;;;;;;36.51;35.11;98934.53;5065657;28;20579;-55
2023/08/02 08:00:40;;;;;;;10.75;8.15;;;;;;;34.80;37.44;98924.50;5064608;28;20475;-55
2023/08/02 08:03:06;;;;;;;14.80;8.07;;;;;;;33.35;39.65;98932.19;5064927;28;20534;-47
2023/08/02 08:05:32;;;;;;;8.82;7.93;;;;;;;32.23;41.40;98928.06;5064038;28;20867;-50
2023/08/02 08:07:58;;;;;;;11.93;8.45;;;;;;;31.19;43.33;98926.13;5068439;28;20033;-54
2023/08/02 08:10:25;;;;;;;10.25;7.63;;;;;;;30.71;44.24;98928.81;5061717;28;20044;-51
2023/08/02 08:12:51;;;;;;;14.10;7.40;;;;;;;31.64;43.16;98928.06;5069445;28;20032;-52
2023/08/02 08:15:17;;;;;;;12.50;7.45;;;;;;;31.66;42.61;98925.19;5064042;28;20044;-54
2023/08/02 08:17:43;;;;;;;12.27;8.00;;;;;;;30.26;44.99;98897.97;5064200;28;20044;-53
2023/08/02 08:20:10;;;;;;;11.02;7.70;;;;;;;29.53;46.81;98914.50;5062103;28;20044;-53
2023/08/02 08:22:36;;;;;;;12.27;7.75;;;;;;;29.16;47.70;98920.91;5066628;28;20060;-51
2023/08/02 08:25:02;;;;;;;11.60;6.97;;;;;;;28.97;48.52;98920.53;5063883;28;20068;-52
2023/08/02 08:27:30;;;;;;;11.52;8.45;;;;;;;29.15;48.62;98928.13;5064811;28;20559;-52
2023/08/02 08:29:56;;;;;;;8.15;6.68;;;;;;;29.01;48.40;98897.69;5030801;28;20048;-53
2023/08/02 08:32:26;;;;;;;11.82;7.05;;;;;;;28.79;49.01;98919.25;5059580;28;20052;-50
2023/08/02 08:34:54;;;;;;;10.07;6.72;;;;;;;28.71;49.28;98920.16;5068609;28;20058;-50
2023/08/02 08:37:20;;;;;;;10.25;6.88;;;;;;;29.06;48.74;98914.03;5064354;28;20036;-44
2023/08/02 08:39:46;;;;;;;9.98;6.93;;;;;;;28.74;49.39;98903.75;5067337;28;20047;-49
2023/08/02 08:42:13;;;;;;;13.93;7.35;;;;;;;28.42;49.74;98891.59;5066751;28;20117;-48
2023/08/02 08:44:39;;;;;;;8.95;7.90;;;;;;;28.33;50.21;98891.88;5068524;28;20067;-49
2023/08/02 08:47:06;;;;;;;13.15;7.13;;;;;;;28.41;50.39;98911.34;5064512;28;20489;-46
2023/08/02 08:49:32;;;;;;;10.93;6.43;;;;;;;28.76;49.96;98915.13;5066801;28;20048;-49
2023/08/02 08:52:03;;;;;;;9.35;7.15;;;;;;;28.60;50.21;98907.25;5065692;28;20159;-48
2023/08/02 08:54:30;;;;;;;9.10;7.60;;;;;;;28.46;50.20;98857.31;5066743;28;20043;-46
2023/08/02 08:56:56;;;;;;;11.07;6.72;;;;;;;29.01;49.58;98883.50;5048109;28;20036;-47
2023/08/02 08:59:23;;;;;;;15.68;6.72;;;;;;;28.82;50.05;98889.47;5065873;28;20043;-48
2023/08/02 09:01:49;;;;;;;9.63;7.00;;;;;;;28.69;50.30;98890.09;5067051;28;20047;-46
2023/08/02 09:04:15;;;;;;;9.73;6.05;;;;;;;28.72;50.33;98897.78;5066095;28;20036;-46
2023/08/02 09:06:41;;;;;;;9.20;5.47;;;;;;;29.11;49.77;98908.09;5063240;28;20043;-47
2023/08/02 09:09:07;;;;;;;9.38;6.35;;;;;;;30.84;47.19;98883.22;5063436;28;20041;-47
2023/08/02 09:11:34;;;;;;;9.63;6.07;;;;;;;32.97;43.67;98900.72;5066309;28;20452;-48
2023/08/02 09:14:14;;;;;;;8.32;5.30;;;;;;;34.62;39.37;98883.97;5062654;28;20377;-45
2023/08/02 09:16:58;;;;;;;7.50;5.47;;;;;;;36.43;36.26;98903.19;5061243;28;20087;-46
2023/08/02 09:19:28;;;;;;;8.48;5.45;;;;;;;37.37;34.68;98897.50;5070189;28;20051;-47
2023/08/02 09:22:11;;;;;;;5.28;4.82;;;;;;;39.03;32.18;98901.03;5063530;28;20040;-45
2023/08/02 09:24:39;;;;;;;10.48;4.60;;;;;;;39.70;30.82;98893.25;5062482;28;20040;-46
2023/08/02 09:27:05;;;;;;;;;;;;;;;37.36;32.83;98895.84;5063261;28;20052;-45
2023/08/02 09:29:51;;;;;;;6.68;4.50;;;;;;;35.14;34.63;98884.34;5058498;28;20403;-45
2023/08/02 09:32:19;;;;;;;6.18;4.70;;;;;;;33.82;36.99;98891.22;5078025;28;20101;-46
2023/08/02 09:34:47;;;;;;;10.93;8.77;;;;;;;32.97;38.59;98891.81;5068177;28;20458;-45
2023/08/02 09:37:14;;;;;;;7.78;5.32;;;;;;;32.29;39.51;98846.47;5068030;28;20354;-48
2023/08/02 09:39:51;;;;;;;9.30;5.00;;;;;;;31.96;40.73;98881.53;5071871;28;20517;-46
2023/08/02 09:42:21;;;;;;;7.53;5.53;;;;;;;31.54;41.81;98872.00;5057620;28;20064;-44
2023/08/02 09:44:58;;;;;;;7.57;5.28;;;;;;;31.13;42.98;98879.41;5059312;28;20094;-45
2023/08/02 09:47:28;;;;;;;6.75;5.35;;;;;;;30.72;43.74;98868.75;5047183;28;20879;-46
2023/08/02 09:50:16;;;;;;;6.75;5.88;;;;;;;30.72;44.13;98871.41;5038582;28;20087;-47
2023/08/02 09:52:42;;;;;;;6.55;5.85;;;;;;;30.66;43.82;98856.94;5057744;28;20052;-48
2023/08/02 09:55:12;;;;;;;10.30;6.47;;;;;;;30.59;43.97;98856.09;5058128;28;20041;-48
2023/08/02 09:57:43;;;;;;;6.72;6.13;;;;;;;30.82;43.95;98861.13;5051174;28;20047;-50
2023/08/02 10:00:10;;;;;;;8.75;6.25;;;;;;;31.23;43.04;98849.47;5063005;28;20039;-62
2023/08/02 10:02:42;;;;;;;8.20;5.90;;;;;;;33.70;39.46;98862.53;5050227;28;20044;-64
2023/08/02 10:05:12;;;;;;;9.45;6.25;;;;;;;35.75;35.84;98862.38;5069932;28;20113;-63
2023/08/02 10:07:45;;;;;;;6.88;6.18;;;;;;;36.78;34.24;98856.28;5048561;28;20115;-63
2023/08/02 10:10:14;;;;;;;11.50;6.50;;;;;;;38.26;32.52;98858.50;5060812;28;20048;-63
2023/08/02 10:12:40;;;;;;;7.30;6.00;;;;;;;39.86;30.69;98867.81;5062266;28;20040;-63
2023/08/02 10:15:07;;;;;;;8.63;6.43;;;;;;;38.41;31.43;98857.88;5065451;28;20122;-64
2023/08/02 10:17:33;;;;;;;6.57;5.78;;;;;;;38.34;31.42;98855.34;5072306;28;20540;-63
2023/08/02 10:20:00;;;;;;;7.05;6.38;;;;;;;39.16;30.10;98824.47;5064190;28;20836;-63
2023/08/02 10:22:26;;;;;;;7.47;6.50;;;;;;;39.14;29.88;98845.69;5063049;28;20667;-62
2023/08/02 10:24:52;;;;;;;7.80;6.70;;;;;;;37.48;31.81;98832.31;5051104;28;20052;-62
2023/08/02 10:27:19;;;;;;;7.78;6.45;;;;;;;36.08;33.22;98827.44;5062641;28;20060;-59
2023/08/02 10:29:46;;;;;;;7.30;6.60;;;;;;;35.56;34.10;98831.06;5080704;28;20066;-62
2023/08/02 10:32:12;;;;;;;7.38;6.78;;;;;;;37.79;31.84;98821.97;5067723;28;20115;-63
2023/08/02 10:34:38;;;;;;;7.80;7.10;;;;;;;39.71;30.10;98826.84;5064151;28;20509;-62
2023/08/02 10:37:05;;;;;;;6.97;6.40;;;;;;;40.65;28.34;98823.28;5066963;28;20599;-61
2023/08/02 10:39:46;;;;;;;5.95;5.45;;;;;;;41.63;25.77;98821.19;5067595;28;20049;-61
2023/08/02 10:42:12;;;;;;;7.25;6.63;;;;;;;42.54;25.32;98815.50;5062349;28;20533;-62
2023/08/02 10:44:57;;;;;;;5.78;5.28;;;;;;;43.55;23.33;98811.28;5068580;28;20131;-60
2023/08/02 10:47:28;;;;;;;9.05;7.35;;;;;;;42.24;24.89;98813.69;5077464;28;20628;-62
2023/08/02 10:49:55;;;;;;;7.05;6.45;;;;;;;42.64;24.52;98807.22;5064982;28;20055;-60
2023/08/02 10:52:27;;;;;;;6.53;6.05;;;;;;;43.38;24.09;98800.72;5050133;28;20052;-62
2023/08/02 10:55:18;;;;;;;6.07;5.63;;;;;;;43.88;22.75;98788.47;5065256;28;20064;-61
2023/08/02 10:57:54;;;;;;;5.60;5.10;;;;;;;44.65;22.56;98805.56;5063857;28;20459;-60
2023/08/02 11:00:26;;;;;;;7.90;5.10;;;;;;;44.92;22.24;98805.75;5068937;28;20040;-60
2023/08/02 11:02:53;;;;;;;6.50;5.97;;;;;;;43.39;23.93;98800.41;5062627;28;20540;-61
2023/08/02 11:05:40;;;;;;;5.60;5.13;;;;;;;44.02;23.23;98794.84;5059874;28;20040;-60
2023/08/02 11:08:10;;;;;;;6.82;4.82;;;;;;;44.41;22.72;98805.66;5035309;28;20563;-61
2023/08/02 11:10:47;;;;;;;6.95;5.20;;;;;;;45.08;22.25;98804.41;5069435;28;20036;-59
2023/08/02 11:13:13;;;;;;;6.20;4.80;;;;;;;45.68;21.99;98788.03;5068010;28;20474;-61
2023/08/02 11:15:39;;;;;;;5.72;5.22;;;;;;;46.11;21.11;98804.25;5065499;28;20286;-59
2023/08/02 11:18:04;;;;;;;6.32;5.00;;;;;;;46.02;20.77;98797.81;5060938;28;20063;-61
2023/08/02 11:20:35;;;;;;;5.93;5.43;;;;;;;46.29;20.48;98793.16;5068226;28;20119;-58
2023/08/02 11:23:01;;;;;;;6.28;5.30;;;;;;;46.82;20.19;98786.19;5063215;28;20045;-58